756  
SHUS65 KGJT 222015  
FWOGJT  
 
DAILY FIRE WEATHER OBSERVATION  
NATIONAL WEATHER SERVICE GRAND JUNCTION CO  
212 PM MDT MON OCT 22 2018  
 
STATE OF THE WEATHER (W) 2  
DRY BULB TEMPERATURE 68 DEGREES FAHRENHEIT  
RELATIVE HUMIDITY (RH) 31 PERCENT  
LIGHTNING ACTIVITY LEVEL  
(LAL - MIDNIGHT TO 2 PM) 1  
WIND DIRECTION 180 DEGREES (C IF CALM)  
WIND SPEED 3 MPH  
MAX TEMP (2 PM - 2 PM) 69 DEGREES FAHRENHEIT  
MIN TEMP (2 PM - 2 PM) 40 DEGREES FAHRENHEIT  
MAX RH (2 PM - 2 PM) 86 PERCENT  
MIN RH (2 PM - 2 PM) 28 PERCENT  
PCPN DURATION 0.0 HOURS  
PCPN AMT (2 PM - 2 PM) 0.00 INCHES  
LAL (2 PM - 2 PM) 1  
 

 
 
METAR KGJT 221953Z 19003KT 10SM CLR 20/02 A3007 RMK AO2 SLP140  
T02000022  
 
CLICK HERE TO GO TO PREVIOUS BULLETINS.

The Nexlab CO Page
The Nexlab UT Page Main Text Page